sensor_id;sensor_type;location;lat;lon;timestamp;P1;durP1;ratioP1;P2;durP2;ratioP2
17091;SDS011;8661;45.700;4.880;2024-01-25T00:00:20;33.37;;;21.90;;
17091;SDS011;8661;45.700;4.880;2024-01-25T00:02:47;34.33;;;19.90;;
17091;SDS011;8661;45.700;4.880;2024-01-25T00:05:15;28.67;;;19.33;;
17091;SDS011;8661;45.700;4.880;2024-01-25T00:07:45;28.93;;;19.23;;
17091;SDS011;8661;45.700;4.880;2024-01-25T00:10:13;27.40;;;17.50;;
17091;SDS011;8661;45.700;4.880;2024-01-25T00:12:40;26.80;;;16.80;;
17091;SDS011;8661;45.700;4.880;2024-01-25T00:15:07;29.60;;;18.03;;
17091;SDS011;8661;45.700;4.880;2024-01-25T00:17:35;31.87;;;19.07;;
17091;SDS011;8661;45.700;4.880;2024-01-25T00:20:02;27.83;;;17.83;;
17091;SDS011;8661;45.700;4.880;2024-01-25T00:22:31;26.30;;;17.60;;
17091;SDS011;8661;45.700;4.880;2024-01-25T00:24:58;33.13;;;19.17;;
17091;SDS011;8661;45.700;4.880;2024-01-25T00:27:25;30.47;;;17.33;;
17091;SDS011;8661;45.700;4.880;2024-01-25T00:29:52;29.93;;;17.63;;
17091;SDS011;8661;45.700;4.880;2024-01-25T00:32:19;28.23;;;15.57;;
17091;SDS011;8661;45.700;4.880;2024-01-25T00:34:46;28.60;;;14.93;;
17091;SDS011;8661;45.700;4.880;2024-01-25T00:37:13;26.77;;;16.67;;
17091;SDS011;8661;45.700;4.880;2024-01-25T00:39:42;29.50;;;17.17;;
17091;SDS011;8661;45.700;4.880;2024-01-25T00:42:11;26.47;;;16.13;;
17091;SDS011;8661;45.700;4.880;2024-01-25T00:44:39;22.20;;;15.20;;
17091;SDS011;8661;45.700;4.880;2024-01-25T00:47:07;22.30;;;14.93;;
17091;SDS011;8661;45.700;4.880;2024-01-25T00:49:35;29.77;;;16.63;;
17091;SDS011;8661;45.700;4.880;2024-01-25T00:52:03;24.77;;;14.67;;
17091;SDS011;8661;45.700;4.880;2024-01-25T00:54:30;28.40;;;15.97;;
17091;SDS011;8661;45.700;4.880;2024-01-25T00:57:00;28.50;;;15.63;;
17091;SDS011;8661;45.700;4.880;2024-01-25T00:59:28;27.50;;;15.70;;
17091;SDS011;8661;45.700;4.880;2024-01-25T01:01:55;25.90;;;15.00;;
17091;SDS011;8661;45.700;4.880;2024-01-25T01:04:24;21.77;;;14.83;;
17091;SDS011;8661;45.700;4.880;2024-01-25T01:06:52;25.47;;;15.67;;
17091;SDS011;8661;45.700;4.880;2024-01-25T01:09:22;25.03;;;15.87;;
17091;SDS011;8661;45.700;4.880;2024-01-25T01:11:48;21.60;;;15.20;;
17091;SDS011;8661;45.700;4.880;2024-01-25T01:14:18;28.33;;;16.17;;
17091;SDS011;8661;45.700;4.880;2024-01-25T01:16:45;26.97;;;15.43;;
17091;SDS011;8661;45.700;4.880;2024-01-25T01:19:12;27.93;;;16.53;;
17091;SDS011;8661;45.700;4.880;2024-01-25T01:21:39;26.03;;;15.23;;
17091;SDS011;8661;45.700;4.880;2024-01-25T01:24:08;27.17;;;15.17;;
17091;SDS011;8661;45.700;4.880;2024-01-25T01:26:36;23.33;;;15.13;;
17091;SDS011;8661;45.700;4.880;2024-01-25T01:29:03;23.07;;;15.00;;
17091;SDS011;8661;45.700;4.880;2024-01-25T01:31:32;24.30;;;16.20;;
17091;SDS011;8661;45.700;4.880;2024-01-25T01:33:58;25.93;;;15.30;;
17091;SDS011;8661;45.700;4.880;2024-01-25T01:36:26;28.93;;;16.03;;
17091;SDS011;8661;45.700;4.880;2024-01-25T01:38:53;22.60;;;15.07;;
17091;SDS011;8661;45.700;4.880;2024-01-25T01:41:20;21.30;;;14.57;;
17091;SDS011;8661;45.700;4.880;2024-01-25T01:43:47;25.53;;;16.10;;
17091;SDS011;8661;45.700;4.880;2024-01-25T01:46:20;21.47;;;14.40;;
17091;SDS011;8661;45.700;4.880;2024-01-25T01:48:59;22.37;;;15.30;;
17091;SDS011;8661;45.700;4.880;2024-01-25T01:51:27;22.27;;;14.67;;
17091;SDS011;8661;45.700;4.880;2024-01-25T01:53:55;22.80;;;14.83;;
17091;SDS011;8661;45.700;4.880;2024-01-25T01:56:23;23.50;;;15.07;;
17091;SDS011;8661;45.700;4.880;2024-01-25T01:58:51;25.07;;;15.07;;
17091;SDS011;8661;45.700;4.880;2024-01-25T02:01:20;22.87;;;14.27;;
17091;SDS011;8661;45.700;4.880;2024-01-25T02:03:47;26.30;;;15.17;;
17091;SDS011;8661;45.700;4.880;2024-01-25T02:06:15;22.50;;;14.27;;
17091;SDS011;8661;45.700;4.880;2024-01-25T02:08:42;24.50;;;15.10;;
17091;SDS011;8661;45.700;4.880;2024-01-25T02:11:11;22.40;;;14.37;;
17091;SDS011;8661;45.700;4.880;2024-01-25T02:13:38;22.37;;;13.97;;
17091;SDS011;8661;45.700;4.880;2024-01-25T02:16:05;23.70;;;14.10;;
17091;SDS011;8661;45.700;4.880;2024-01-25T02:18:35;22.13;;;14.40;;
17091;SDS011;8661;45.700;4.880;2024-01-25T02:21:02;24.20;;;15.07;;
17091;SDS011;8661;45.700;4.880;2024-01-25T02:23:31;24.20;;;17.07;;
17091;SDS011;8661;45.700;4.880;2024-01-25T02:25:58;27.60;;;17.30;;
17091;SDS011;8661;45.700;4.880;2024-01-25T02:28:25;21.50;;;15.73;;
17091;SDS011;8661;45.700;4.880;2024-01-25T02:30:52;21.83;;;13.70;;
17091;SDS011;8661;45.700;4.880;2024-01-25T02:33:21;27.37;;;14.03;;
17091;SDS011;8661;45.700;4.880;2024-01-25T02:35:47;20.83;;;12.60;;
17091;SDS011;8661;45.700;4.880;2024-01-25T02:38:14;23.97;;;13.97;;
17091;SDS011;8661;45.700;4.880;2024-01-25T02:40:45;19.87;;;13.50;;
17091;SDS011;8661;45.700;4.880;2024-01-25T02:43:12;23.13;;;13.63;;
17091;SDS011;8661;45.700;4.880;2024-01-25T02:45:39;21.43;;;14.00;;
17091;SDS011;8661;45.700;4.880;2024-01-25T02:48:06;25.13;;;14.80;;
17091;SDS011;8661;45.700;4.880;2024-01-25T02:50:33;22.00;;;14.53;;
17091;SDS011;8661;45.700;4.880;2024-01-25T02:53:00;20.40;;;13.80;;
17091;SDS011;8661;45.700;4.880;2024-01-25T02:55:28;21.67;;;13.30;;
17091;SDS011;8661;45.700;4.880;2024-01-25T02:57:56;26.07;;;13.97;;
17091;SDS011;8661;45.700;4.880;2024-01-25T03:00:23;19.63;;;12.83;;
17091;SDS011;8661;45.700;4.880;2024-01-25T03:02:50;18.90;;;12.73;;
17091;SDS011;8661;45.700;4.880;2024-01-25T03:05:17;18.87;;;12.50;;
17091;SDS011;8661;45.700;4.880;2024-01-25T03:07:44;18.23;;;12.40;;
17091;SDS011;8661;45.700;4.880;2024-01-25T03:10:10;16.83;;;12.17;;
17091;SDS011;8661;45.700;4.880;2024-01-25T03:12:38;21.73;;;12.77;;
17091;SDS011;8661;45.700;4.880;2024-01-25T03:15:07;20.20;;;12.70;;
17091;SDS011;8661;45.700;4.880;2024-01-25T03:17:36;20.77;;;12.57;;
17091;SDS011;8661;45.700;4.880;2024-01-25T03:20:03;19.63;;;12.53;;
17091;SDS011;8661;45.700;4.880;2024-01-25T03:22:31;21.53;;;12.70;;
17091;SDS011;8661;45.700;4.880;2024-01-25T03:24:58;17.43;;;12.27;;
17091;SDS011;8661;45.700;4.880;2024-01-25T03:27:24;22.60;;;13.53;;
17091;SDS011;8661;45.700;4.880;2024-01-25T03:29:51;19.97;;;12.70;;
17091;SDS011;8661;45.700;4.880;2024-01-25T03:32:20;20.30;;;12.97;;
17091;SDS011;8661;45.700;4.880;2024-01-25T03:34:47;19.23;;;12.80;;
17091;SDS011;8661;45.700;4.880;2024-01-25T03:37:13;20.43;;;12.23;;
17091;SDS011;8661;45.700;4.880;2024-01-25T03:39:40;21.13;;;12.73;;
17091;SDS011;8661;45.700;4.880;2024-01-25T03:42:08;25.53;;;13.60;;
17091;SDS011;8661;45.700;4.880;2024-01-25T03:44:35;20.53;;;13.40;;
17091;SDS011;8661;45.700;4.880;2024-01-25T03:47:02;22.90;;;13.70;;
17091;SDS011;8661;45.700;4.880;2024-01-25T03:49:31;25.90;;;13.87;;
17091;SDS011;8661;45.700;4.880;2024-01-25T03:51:58;23.77;;;13.67;;
17091;SDS011;8661;45.700;4.880;2024-01-25T03:54:24;19.40;;;12.83;;
17091;SDS011;8661;45.700;4.880;2024-01-25T03:56:51;21.70;;;13.03;;
17091;SDS011;8661;45.700;4.880;2024-01-25T03:59:18;22.13;;;13.47;;
17091;SDS011;8661;45.700;4.880;2024-01-25T04:01:45;20.37;;;13.33;;
17091;SDS011;8661;45.700;4.880;2024-01-25T04:04:13;20.33;;;13.93;;
17091;SDS011;8661;45.700;4.880;2024-01-25T04:06:43;19.63;;;12.23;;
17091;SDS011;8661;45.700;4.880;2024-01-25T04:09:12;20.87;;;12.80;;
17091;SDS011;8661;45.700;4.880;2024-01-25T04:11:40;23.13;;;13.03;;
17091;SDS011;8661;45.700;4.880;2024-01-25T04:14:07;19.43;;;12.57;;
17091;SDS011;8661;45.700;4.880;2024-01-25T04:16:35;21.33;;;13.23;;
17091;SDS011;8661;45.700;4.880;2024-01-25T04:19:02;20.97;;;12.83;;
17091;SDS011;8661;45.700;4.880;2024-01-25T04:21:29;22.40;;;14.30;;
17091;SDS011;8661;45.700;4.880;2024-01-25T04:23:58;21.53;;;12.40;;
17091;SDS011;8661;45.700;4.880;2024-01-25T04:26:25;21.83;;;12.60;;
17091;SDS011;8661;45.700;4.880;2024-01-25T04:28:52;19.47;;;13.23;;
17091;SDS011;8661;45.700;4.880;2024-01-25T04:31:19;20.10;;;13.10;;
17091;SDS011;8661;45.700;4.880;2024-01-25T04:33:46;19.93;;;13.43;;
17091;SDS011;8661;45.700;4.880;2024-01-25T04:36:13;19.93;;;13.50;;
17091;SDS011;8661;45.700;4.880;2024-01-25T04:38:40;17.90;;;13.00;;
17091;SDS011;8661;45.700;4.880;2024-01-25T04:41:08;20.33;;;13.43;;
17091;SDS011;8661;45.700;4.880;2024-01-25T04:43:35;21.87;;;13.93;;
17091;SDS011;8661;45.700;4.880;2024-01-25T04:46:02;22.03;;;14.33;;
17091;SDS011;8661;45.700;4.880;2024-01-25T04:48:29;18.60;;;12.53;;
17091;SDS011;8661;45.700;4.880;2024-01-25T04:50:56;21.00;;;12.60;;
17091;SDS011;8661;45.700;4.880;2024-01-25T04:53:24;19.87;;;13.60;;
17091;SDS011;8661;45.700;4.880;2024-01-25T04:55:51;20.80;;;13.20;;
17091;SDS011;8661;45.700;4.880;2024-01-25T04:58:20;23.53;;;13.63;;
17091;SDS011;8661;45.700;4.880;2024-01-25T05:00:48;25.73;;;14.57;;
17091;SDS011;8661;45.700;4.880;2024-01-25T05:03:15;23.93;;;14.97;;
17091;SDS011;8661;45.700;4.880;2024-01-25T05:05:43;24.07;;;15.33;;
17091;SDS011;8661;45.700;4.880;2024-01-25T05:08:14;22.97;;;14.17;;
17091;SDS011;8661;45.700;4.880;2024-01-25T05:10:41;26.03;;;14.33;;
17091;SDS011;8661;45.700;4.880;2024-01-25T05:13:08;20.40;;;13.57;;
17091;SDS011;8661;45.700;4.880;2024-01-25T05:15:37;21.20;;;14.47;;
17091;SDS011;8661;45.700;4.880;2024-01-25T05:18:04;20.67;;;14.17;;
17091;SDS011;8661;45.700;4.880;2024-01-25T05:20:31;19.73;;;13.03;;
17091;SDS011;8661;45.700;4.880;2024-01-25T05:22:59;18.13;;;12.93;;
17091;SDS011;8661;45.700;4.880;2024-01-25T05:25:26;19.93;;;11.50;;
17091;SDS011;8661;45.700;4.880;2024-01-25T05:27:54;20.57;;;12.77;;
17091;SDS011;8661;45.700;4.880;2024-01-25T05:30:22;19.00;;;12.23;;
17091;SDS011;8661;45.700;4.880;2024-01-25T05:32:51;18.03;;;11.80;;
17091;SDS011;8661;45.700;4.880;2024-01-25T05:35:19;20.50;;;12.70;;
17091;SDS011;8661;45.700;4.880;2024-01-25T05:37:46;15.83;;;10.93;;
17091;SDS011;8661;45.700;4.880;2024-01-25T05:40:13;20.40;;;11.20;;
17091;SDS011;8661;45.700;4.880;2024-01-25T05:42:40;18.50;;;10.97;;
17091;SDS011;8661;45.700;4.880;2024-01-25T05:45:07;19.67;;;11.63;;
17091;SDS011;8661;45.700;4.880;2024-01-25T05:47:35;21.40;;;12.60;;
17091;SDS011;8661;45.700;4.880;2024-01-25T05:50:03;17.57;;;11.77;;
17091;SDS011;8661;45.700;4.880;2024-01-25T05:52:31;16.57;;;11.87;;
17091;SDS011;8661;45.700;4.880;2024-01-25T05:55:02;17.40;;;11.97;;
17091;SDS011;8661;45.700;4.880;2024-01-25T05:57:29;18.67;;;11.90;;
17091;SDS011;8661;45.700;4.880;2024-01-25T05:59:56;14.43;;;11.03;;
17091;SDS011;8661;45.700;4.880;2024-01-25T06:02:23;19.73;;;11.27;;
17091;SDS011;8661;45.700;4.880;2024-01-25T06:04:50;17.90;;;11.60;;
17091;SDS011;8661;45.700;4.880;2024-01-25T06:07:19;17.10;;;11.57;;
17091;SDS011;8661;45.700;4.880;2024-01-25T06:09:46;19.37;;;12.13;;
17091;SDS011;8661;45.700;4.880;2024-01-25T06:12:13;23.17;;;12.43;;
17091;SDS011;8661;45.700;4.880;2024-01-25T06:14:40;18.97;;;12.37;;
17091;SDS011;8661;45.700;4.880;2024-01-25T06:17:07;19.67;;;11.93;;
17091;SDS011;8661;45.700;4.880;2024-01-25T06:19:34;20.27;;;12.30;;
17091;SDS011;8661;45.700;4.880;2024-01-25T06:22:01;18.70;;;12.30;;
17091;SDS011;8661;45.700;4.880;2024-01-25T06:24:31;16.53;;;11.30;;
17091;SDS011;8661;45.700;4.880;2024-01-25T06:26:58;18.50;;;11.93;;
17091;SDS011;8661;45.700;4.880;2024-01-25T06:29:26;20.17;;;11.50;;
17091;SDS011;8661;45.700;4.880;2024-01-25T06:31:53;17.60;;;10.77;;
17091;SDS011;8661;45.700;4.880;2024-01-25T06:34:20;15.97;;;10.97;;
17091;SDS011;8661;45.700;4.880;2024-01-25T06:36:47;21.03;;;10.67;;
17091;SDS011;8661;45.700;4.880;2024-01-25T06:39:13;19.03;;;10.97;;
17091;SDS011;8661;45.700;4.880;2024-01-25T06:41:42;18.63;;;10.77;;
17091;SDS011;8661;45.700;4.880;2024-01-25T06:44:12;16.47;;;10.97;;
17091;SDS011;8661;45.700;4.880;2024-01-25T06:46:39;16.67;;;10.40;;
17091;SDS011;8661;45.700;4.880;2024-01-25T06:49:06;19.33;;;11.17;;
17091;SDS011;8661;45.700;4.880;2024-01-25T06:51:33;17.03;;;10.63;;
17091;SDS011;8661;45.700;4.880;2024-01-25T06:54:00;18.80;;;11.40;;
17091;SDS011;8661;45.700;4.880;2024-01-25T06:56:27;19.00;;;11.40;;
17091;SDS011;8661;45.700;4.880;2024-01-25T06:58:55;19.93;;;11.90;;
17091;SDS011;8661;45.700;4.880;2024-01-25T07:01:23;18.23;;;12.43;;
17091;SDS011;8661;45.700;4.880;2024-01-25T07:03:50;18.37;;;12.37;;
17091;SDS011;8661;45.700;4.880;2024-01-25T07:06:16;18.33;;;12.10;;
17091;SDS011;8661;45.700;4.880;2024-01-25T07:08:44;18.07;;;12.00;;
17091;SDS011;8661;45.700;4.880;2024-01-25T07:11:11;18.47;;;12.60;;
17091;SDS011;8661;45.700;4.880;2024-01-25T07:13:38;17.80;;;11.70;;
17091;SDS011;8661;45.700;4.880;2024-01-25T07:16:08;19.13;;;11.30;;
17091;SDS011;8661;45.700;4.880;2024-01-25T07:18:35;17.80;;;12.20;;
17091;SDS011;8661;45.700;4.880;2024-01-25T07:21:05;17.17;;;11.40;;
17091;SDS011;8661;45.700;4.880;2024-01-25T07:23:32;23.83;;;11.90;;
17091;SDS011;8661;45.700;4.880;2024-01-25T07:26:00;17.07;;;11.63;;
17091;SDS011;8661;45.700;4.880;2024-01-25T07:28:27;18.73;;;11.33;;
17091;SDS011;8661;45.700;4.880;2024-01-25T07:30:54;15.67;;;11.17;;
17091;SDS011;8661;45.700;4.880;2024-01-25T07:33:22;18.10;;;10.77;;
17091;SDS011;8661;45.700;4.880;2024-01-25T07:39:21;16.07;;;11.43;;
17091;SDS011;8661;45.700;4.880;2024-01-25T07:41:48;18.23;;;10.97;;
17091;SDS011;8661;45.700;4.880;2024-01-25T07:44:16;17.83;;;11.13;;
17091;SDS011;8661;45.700;4.880;2024-01-25T07:46:44;15.13;;;10.63;;
17091;SDS011;8661;45.700;4.880;2024-01-25T07:49:13;20.40;;;10.13;;
17091;SDS011;8661;45.700;4.880;2024-01-25T07:51:40;17.80;;;11.13;;
17091;SDS011;8661;45.700;4.880;2024-01-25T07:54:07;17.70;;;11.87;;
17091;SDS011;8661;45.700;4.880;2024-01-25T07:56:34;16.93;;;11.20;;
17091;SDS011;8661;45.700;4.880;2024-01-25T07:59:01;17.40;;;11.33;;
17091;SDS011;8661;45.700;4.880;2024-01-25T08:01:28;16.03;;;11.83;;
17091;SDS011;8661;45.700;4.880;2024-01-25T08:03:55;17.33;;;11.87;;
17091;SDS011;8661;45.700;4.880;2024-01-25T08:06:24;20.80;;;12.18;;
17091;SDS011;8661;45.700;4.880;2024-01-25T08:08:52;18.30;;;11.43;;
17091;SDS011;8661;45.700;4.880;2024-01-25T08:11:19;24.57;;;12.63;;
17091;SDS011;8661;45.700;4.880;2024-01-25T08:13:46;21.53;;;13.67;;
17091;SDS011;8661;45.700;4.880;2024-01-25T08:16:14;21.43;;;13.97;;
17091;SDS011;8661;45.700;4.880;2024-01-25T08:18:44;22.77;;;13.90;;
17091;SDS011;8661;45.700;4.880;2024-01-25T08:21:11;25.17;;;14.23;;
17091;SDS011;8661;45.700;4.880;2024-01-25T08:23:40;21.53;;;13.47;;
17091;SDS011;8661;45.700;4.880;2024-01-25T08:26:07;19.00;;;13.90;;
17091;SDS011;8661;45.700;4.880;2024-01-25T08:28:38;18.57;;;13.13;;
17091;SDS011;8661;45.700;4.880;2024-01-25T08:31:05;21.93;;;13.20;;
17091;SDS011;8661;45.700;4.880;2024-01-25T08:33:32;21.60;;;13.17;;
17091;SDS011;8661;45.700;4.880;2024-01-25T08:35:59;22.07;;;13.07;;
17091;SDS011;8661;45.700;4.880;2024-01-25T08:38:27;21.50;;;13.40;;
17091;SDS011;8661;45.700;4.880;2024-01-25T08:40:57;22.17;;;12.73;;
17091;SDS011;8661;45.700;4.880;2024-01-25T08:43:24;25.10;;;13.47;;
17091;SDS011;8661;45.700;4.880;2024-01-25T08:45:51;21.33;;;13.20;;
17091;SDS011;8661;45.700;4.880;2024-01-25T08:48:18;21.83;;;12.87;;
17091;SDS011;8661;45.700;4.880;2024-01-25T08:50:45;19.97;;;13.03;;
17091;SDS011;8661;45.700;4.880;2024-01-25T08:53:14;22.80;;;13.47;;
17091;SDS011;8661;45.700;4.880;2024-01-25T08:55:41;18.00;;;12.13;;
17091;SDS011;8661;45.700;4.880;2024-01-25T08:58:09;14.40;;;10.47;;
17091;SDS011;8661;45.700;4.880;2024-01-25T09:00:36;16.67;;;11.03;;
17091;SDS011;8661;45.700;4.880;2024-01-25T09:03:03;14.73;;;10.00;;
17091;SDS011;8661;45.700;4.880;2024-01-25T09:05:31;16.27;;;10.63;;
17091;SDS011;8661;45.700;4.880;2024-01-25T09:07:59;16.03;;;10.70;;
17091;SDS011;8661;45.700;4.880;2024-01-25T09:10:26;13.20;;;8.93;;
17091;SDS011;8661;45.700;4.880;2024-01-25T09:12:53;12.00;;;8.13;;
17091;SDS011;8661;45.700;4.880;2024-01-25T09:15:22;12.07;;;7.60;;
17091;SDS011;8661;45.700;4.880;2024-01-25T09:17:49;11.40;;;8.47;;
17091;SDS011;8661;45.700;4.880;2024-01-25T09:20:16;9.77;;;6.93;;
17091;SDS011;8661;45.700;4.880;2024-01-25T09:22:43;13.47;;;8.10;;
17091;SDS011;8661;45.700;4.880;2024-01-25T09:25:11;11.83;;;7.33;;
17091;SDS011;8661;45.700;4.880;2024-01-25T09:27:38;16.47;;;10.93;;
17091;SDS011;8661;45.700;4.880;2024-01-25T09:30:06;15.10;;;10.07;;
17091;SDS011;8661;45.700;4.880;2024-01-25T09:32:35;11.83;;;7.77;;
17091;SDS011;8661;45.700;4.880;2024-01-25T09:35:02;13.87;;;7.50;;
17091;SDS011;8661;45.700;4.880;2024-01-25T09:37:30;12.30;;;8.20;;
17091;SDS011;8661;45.700;4.880;2024-01-25T09:39:57;11.53;;;6.80;;
17091;SDS011;8661;45.700;4.880;2024-01-25T09:42:25;11.87;;;7.03;;
17091;SDS011;8661;45.700;4.880;2024-01-25T09:44:52;10.80;;;5.90;;
17091;SDS011;8661;45.700;4.880;2024-01-25T09:47:20;9.70;;;6.07;;
17091;SDS011;8661;45.700;4.880;2024-01-25T09:49:50;12.13;;;6.10;;
17091;SDS011;8661;45.700;4.880;2024-01-25T09:52:17;12.47;;;7.60;;
17091;SDS011;8661;45.700;4.880;2024-01-25T09:54:50;10.17;;;6.50;;
17091;SDS011;8661;45.700;4.880;2024-01-25T09:57:21;11.20;;;6.80;;
17091;SDS011;8661;45.700;4.880;2024-01-25T09:59:54;11.67;;;7.83;;
17091;SDS011;8661;45.700;4.880;2024-01-25T10:02:21;12.50;;;6.67;;
17091;SDS011;8661;45.700;4.880;2024-01-25T10:04:50;13.37;;;6.07;;
17091;SDS011;8661;45.700;4.880;2024-01-25T10:10:03;10.37;;;5.43;;
17091;SDS011;8661;45.700;4.880;2024-01-25T10:12:31;8.23;;;5.47;;
17091;SDS011;8661;45.700;4.880;2024-01-25T10:14:59;6.47;;;4.87;;
17091;SDS011;8661;45.700;4.880;2024-01-25T10:17:26;7.27;;;5.30;;
17091;SDS011;8661;45.700;4.880;2024-01-25T10:19:56;6.23;;;4.60;;
17091;SDS011;8661;45.700;4.880;2024-01-25T10:22:23;8.80;;;4.53;;
17091;SDS011;8661;45.700;4.880;2024-01-25T10:24:50;8.40;;;4.30;;
17091;SDS011;8661;45.700;4.880;2024-01-25T10:27:18;4.50;;;4.10;;
17091;SDS011;8661;45.700;4.880;2024-01-25T10:29:46;7.43;;;5.40;;
17091;SDS011;8661;45.700;4.880;2024-01-25T10:32:14;7.87;;;5.33;;
17091;SDS011;8661;45.700;4.880;2024-01-25T10:34:41;10.97;;;5.20;;
17091;SDS011;8661;45.700;4.880;2024-01-25T10:37:13;6.67;;;4.33;;
17091;SDS011;8661;45.700;4.880;2024-01-25T10:39:42;7.80;;;4.27;;
17091;SDS011;8661;45.700;4.880;2024-01-25T10:42:10;7.40;;;4.27;;
17091;SDS011;8661;45.700;4.880;2024-01-25T10:44:47;10.30;;;4.57;;
17091;SDS011;8661;45.700;4.880;2024-01-25T10:47:14;8.60;;;5.00;;
17091;SDS011;8661;45.700;4.880;2024-01-25T10:49:41;8.07;;;4.60;;
17091;SDS011;8661;45.700;4.880;2024-01-25T10:52:09;10.27;;;4.10;;
17091;SDS011;8661;45.700;4.880;2024-01-25T10:54:37;12.17;;;3.83;;
17091;SDS011;8661;45.700;4.880;2024-01-25T10:57:05;9.70;;;3.60;;
17091;SDS011;8661;45.700;4.880;2024-01-25T10:59:32;4.87;;;3.47;;
17091;SDS011;8661;45.700;4.880;2024-01-25T11:02:00;8.57;;;3.90;;
17091;SDS011;8661;45.700;4.880;2024-01-25T11:04:27;5.40;;;3.40;;
17091;SDS011;8661;45.700;4.880;2024-01-25T11:07:04;8.70;;;3.80;;
17091;SDS011;8661;45.700;4.880;2024-01-25T11:09:32;5.23;;;2.80;;
17091;SDS011;8661;45.700;4.880;2024-01-25T11:12:08;8.63;;;3.17;;
17091;SDS011;8661;45.700;4.880;2024-01-25T11:14:37;5.80;;;2.90;;
17091;SDS011;8661;45.700;4.880;2024-01-25T11:17:14;5.60;;;3.37;;
17091;SDS011;8661;45.700;4.880;2024-01-25T11:19:41;8.50;;;2.60;;
17091;SDS011;8661;45.700;4.880;2024-01-25T11:22:10;4.13;;;2.70;;
17091;SDS011;8661;45.700;4.880;2024-01-25T11:24:38;3.93;;;2.80;;
17091;SDS011;8661;45.700;4.880;2024-01-25T11:27:06;6.07;;;2.93;;
17091;SDS011;8661;45.700;4.880;2024-01-25T11:29:34;6.63;;;3.03;;
17091;SDS011;8661;45.700;4.880;2024-01-25T11:32:01;4.87;;;2.00;;
17091;SDS011;8661;45.700;4.880;2024-01-25T11:34:30;3.43;;;2.23;;
17091;SDS011;8661;45.700;4.880;2024-01-25T11:36:57;5.00;;;2.87;;
17091;SDS011;8661;45.700;4.880;2024-01-25T11:39:24;6.23;;;2.90;;
17091;SDS011;8661;45.700;4.880;2024-01-25T11:41:51;4.27;;;2.80;;
17091;SDS011;8661;45.700;4.880;2024-01-25T11:44:20;3.87;;;2.57;;
17091;SDS011;8661;45.700;4.880;2024-01-25T11:46:49;4.60;;;2.70;;
17091;SDS011;8661;45.700;4.880;2024-01-25T11:49:16;5.13;;;2.87;;
17091;SDS011;8661;45.700;4.880;2024-01-25T11:51:44;6.43;;;2.43;;
17091;SDS011;8661;45.700;4.880;2024-01-25T11:54:11;6.03;;;2.10;;
17091;SDS011;8661;45.700;4.880;2024-01-25T11:56:38;9.10;;;2.33;;
17091;SDS011;8661;45.700;4.880;2024-01-25T11:59:07;5.93;;;2.53;;
17091;SDS011;8661;45.700;4.880;2024-01-25T12:01:36;2.37;;;1.40;;
17091;SDS011;8661;45.700;4.880;2024-01-25T12:04:04;3.37;;;1.33;;
17091;SDS011;8661;45.700;4.880;2024-01-25T12:06:32;2.30;;;1.20;;
17091;SDS011;8661;45.700;4.880;2024-01-25T12:09:05;2.03;;;1.07;;
17091;SDS011;8661;45.700;4.880;2024-01-25T12:11:34;1.73;;;0.90;;
17091;SDS011;8661;45.700;4.880;2024-01-25T12:14:01;1.60;;;0.90;;
17091;SDS011;8661;45.700;4.880;2024-01-25T12:16:28;2.40;;;0.80;;
17091;SDS011;8661;45.700;4.880;2024-01-25T12:18:57;1.67;;;0.80;;
17091;SDS011;8661;45.700;4.880;2024-01-25T12:21:25;3.30;;;0.80;;
17091;SDS011;8661;45.700;4.880;2024-01-25T12:23:51;3.10;;;0.60;;
17091;SDS011;8661;45.700;4.880;2024-01-25T12:26:18;2.00;;;0.80;;
17091;SDS011;8661;45.700;4.880;2024-01-25T12:28:46;3.53;;;0.70;;
17091;SDS011;8661;45.700;4.880;2024-01-25T12:31:15;3.10;;;0.80;;
17091;SDS011;8661;45.700;4.880;2024-01-25T12:33:42;1.10;;;0.70;;
17091;SDS011;8661;45.700;4.880;2024-01-25T12:36:11;0.80;;;0.70;;
17091;SDS011;8661;45.700;4.880;2024-01-25T12:38:38;1.17;;;0.70;;
17091;SDS011;8661;45.700;4.880;2024-01-25T12:41:05;1.57;;;0.70;;
17091;SDS011;8661;45.700;4.880;2024-01-25T12:43:32;0.80;;;0.60;;
17091;SDS011;8661;45.700;4.880;2024-01-25T12:45:59;2.30;;;0.60;;
17091;SDS011;8661;45.700;4.880;2024-01-25T12:48:26;1.53;;;0.80;;
17091;SDS011;8661;45.700;4.880;2024-01-25T12:50:55;1.40;;;0.57;;
17091;SDS011;8661;45.700;4.880;2024-01-25T12:53:23;0.93;;;0.50;;
17091;SDS011;8661;45.700;4.880;2024-01-25T12:55:50;0.93;;;0.43;;
17091;SDS011;8661;45.700;4.880;2024-01-25T12:58:17;0.73;;;0.60;;
17091;SDS011;8661;45.700;4.880;2024-01-25T13:00:44;1.40;;;0.50;;
17091;SDS011;8661;45.700;4.880;2024-01-25T13:03:11;1.30;;;0.77;;
17091;SDS011;8661;45.700;4.880;2024-01-25T13:05:38;1.37;;;0.80;;
17091;SDS011;8661;45.700;4.880;2024-01-25T13:08:06;0.87;;;0.73;;
17091;SDS011;8661;45.700;4.880;2024-01-25T13:10:34;5.03;;;0.70;;
17091;SDS011;8661;45.700;4.880;2024-01-25T13:13:01;1.03;;;0.60;;
17091;SDS011;8661;45.700;4.880;2024-01-25T13:15:28;2.30;;;0.70;;
17091;SDS011;8661;45.700;4.880;2024-01-25T13:17:56;1.03;;;0.60;;
17091;SDS011;8661;45.700;4.880;2024-01-25T13:20:23;1.23;;;0.70;;
17091;SDS011;8661;45.700;4.880;2024-01-25T13:22:49;0.70;;;0.60;;
17091;SDS011;8661;45.700;4.880;2024-01-25T13:25:16;6.97;;;4.60;;
17091;SDS011;8661;45.700;4.880;2024-01-25T13:27:45;2.10;;;0.80;;
17091;SDS011;8661;45.700;4.880;2024-01-25T13:30:12;1.90;;;1.13;;
17091;SDS011;8661;45.700;4.880;2024-01-25T13:32:39;1.17;;;0.60;;
17091;SDS011;8661;45.700;4.880;2024-01-25T13:35:06;1.30;;;0.53;;
17091;SDS011;8661;45.700;4.880;2024-01-25T13:37:33;1.60;;;0.67;;
17091;SDS011;8661;45.700;4.880;2024-01-25T13:40:00;3.07;;;0.90;;
17091;SDS011;8661;45.700;4.880;2024-01-25T13:42:29;1.17;;;0.60;;
17091;SDS011;8661;45.700;4.880;2024-01-25T13:44:57;0.53;;;0.53;;
17091;SDS011;8661;45.700;4.880;2024-01-25T13:47:24;0.87;;;0.50;;
17091;SDS011;8661;45.700;4.880;2024-01-25T13:49:51;0.97;;;0.50;;
17091;SDS011;8661;45.700;4.880;2024-01-25T13:52:18;0.97;;;0.60;;
17091;SDS011;8661;45.700;4.880;2024-01-25T13:54:45;1.77;;;0.73;;
17091;SDS011;8661;45.700;4.880;2024-01-25T13:57:14;0.63;;;0.57;;
17091;SDS011;8661;45.700;4.880;2024-01-25T13:59:41;1.13;;;0.70;;
17091;SDS011;8661;45.700;4.880;2024-01-25T14:02:09;3.30;;;1.30;;
17091;SDS011;8661;45.700;4.880;2024-01-25T14:04:37;0.50;;;0.40;;
17091;SDS011;8661;45.700;4.880;2024-01-25T14:07:03;1.30;;;0.60;;
17091;SDS011;8661;45.700;4.880;2024-01-25T14:09:30;1.57;;;0.60;;
17091;SDS011;8661;45.700;4.880;2024-01-25T14:11:57;2.80;;;0.70;;
17091;SDS011;8661;45.700;4.880;2024-01-25T14:14:24;3.33;;;0.60;;
17091;SDS011;8661;45.700;4.880;2024-01-25T14:16:51;1.60;;;0.80;;
17091;SDS011;8661;45.700;4.880;2024-01-25T14:19:19;2.53;;;0.80;;
17091;SDS011;8661;45.700;4.880;2024-01-25T14:21:46;2.13;;;0.60;;
17091;SDS011;8661;45.700;4.880;2024-01-25T14:24:14;1.80;;;0.60;;
17091;SDS011;8661;45.700;4.880;2024-01-25T14:26:41;5.70;;;0.83;;
17091;SDS011;8661;45.700;4.880;2024-01-25T14:29:09;2.40;;;0.73;;
17091;SDS011;8661;45.700;4.880;2024-01-25T14:31:36;1.20;;;0.77;;
17091;SDS011;8661;45.700;4.880;2024-01-25T14:34:03;2.17;;;0.80;;
17091;SDS011;8661;45.700;4.880;2024-01-25T14:36:32;2.10;;;0.50;;
17091;SDS011;8661;45.700;4.880;2024-01-25T14:38:58;2.10;;;0.53;;
17091;SDS011;8661;45.700;4.880;2024-01-25T14:41:27;1.47;;;0.50;;
17091;SDS011;8661;45.700;4.880;2024-01-25T14:43:54;2.27;;;0.70;;
17091;SDS011;8661;45.700;4.880;2024-01-25T14:46:21;1.40;;;0.93;;
17091;SDS011;8661;45.700;4.880;2024-01-25T14:48:48;0.90;;;0.70;;
17091;SDS011;8661;45.700;4.880;2024-01-25T14:51:14;1.80;;;0.87;;